sensor_id;sensor_type;location;lat;lon;timestamp;P1;durP1;ratioP1;P2;durP2;ratioP2
35276;SDS011;21401;50.878;8.050;2023-02-01T04:27:15;30.30;;;4.20;;
35276;SDS011;21401;50.878;8.050;2023-02-01T04:58:12;23.75;;;5.50;;
35276;SDS011;21401;50.878;8.050;2023-02-01T12:54:59;17.73;;;4.82;;
35276;SDS011;21401;50.878;8.050;2023-02-01T14:24:40;26.95;;;7.40;;
35276;SDS011;21401;50.878;8.050;2023-02-01T15:04:24;15.25;;;5.65;;
35276;SDS011;21401;50.878;8.050;2023-02-01T15:14:16;25.70;;;7.22;;
35276;SDS011;21401;50.878;8.050;2023-02-01T15:20:21;23.40;;;6.13;;
35276;SDS011;21401;50.878;8.050;2023-02-01T15:26:33;31.95;;;8.85;;
35276;SDS011;21401;50.878;8.050;2023-02-01T15:32:40;24.77;;;8.85;;
35276;SDS011;21401;50.878;8.050;2023-02-01T16:16:32;26.88;;;7.47;;
35276;SDS011;21401;50.878;8.050;2023-02-01T16:29:36;28.42;;;6.32;;
35276;SDS011;21401;50.878;8.050;2023-02-01T16:32:25;20.52;;;6.63;;
35276;SDS011;21401;50.878;8.050;2023-02-01T16:42:45;23.98;;;6.80;;
35276;SDS011;21401;50.878;8.050;2023-02-01T16:49:41;29.45;;;10.15;;
35276;SDS011;21401;50.878;8.050;2023-02-01T16:53:15;25.58;;;7.32;;
35276;SDS011;21401;50.878;8.050;2023-02-01T16:56:49;27.25;;;10.27;;
35276;SDS011;21401;50.878;8.050;2023-02-01T16:59:21;29.25;;;10.32;;
35276;SDS011;21401;50.878;8.050;2023-02-01T17:02:29;27.73;;;9.30;;
35276;SDS011;21401;50.878;8.050;2023-02-01T17:05:40;23.10;;;9.68;;
35276;SDS011;21401;50.878;8.050;2023-02-01T17:21:55;25.17;;;7.30;;
35276;SDS011;21401;50.878;8.050;2023-02-01T17:27:33;21.40;;;5.78;;
35276;SDS011;21401;50.878;8.050;2023-02-01T17:30:15;20.88;;;6.57;;
35276;SDS011;21401;50.878;8.050;2023-02-01T17:32:47;17.13;;;6.25;;
35276;SDS011;21401;50.878;8.050;2023-02-01T17:35:36;21.52;;;7.18;;
35276;SDS011;21401;50.878;8.050;2023-02-01T17:38:31;29.52;;;11.25;;
35276;SDS011;21401;50.878;8.050;2023-02-01T17:41:08;30.42;;;10.70;;
35276;SDS011;21401;50.878;8.050;2023-02-01T17:43:48;25.58;;;10.77;;
35276;SDS011;21401;50.878;8.050;2023-02-01T17:46:16;27.85;;;12.77;;
35276;SDS011;21401;50.878;8.050;2023-02-01T17:48:51;36.45;;;13.20;;
35276;SDS011;21401;50.878;8.050;2023-02-01T17:51:46;36.72;;;15.57;;
35276;SDS011;21401;50.878;8.050;2023-02-01T17:54:15;37.50;;;15.43;;
35276;SDS011;21401;50.878;8.050;2023-02-01T17:56:43;41.88;;;18.05;;
35276;SDS011;21401;50.878;8.050;2023-02-01T17:59:13;30.50;;;10.00;;
35276;SDS011;21401;50.878;8.050;2023-02-01T18:01:46;22.52;;;9.70;;
35276;SDS011;21401;50.878;8.050;2023-02-01T18:04:28;28.27;;;9.70;;
35276;SDS011;21401;50.878;8.050;2023-02-01T18:07:15;26.42;;;10.75;;
35276;SDS011;21401;50.878;8.050;2023-02-01T18:09:52;25.02;;;10.73;;
35276;SDS011;21401;50.878;8.050;2023-02-01T18:12:27;23.65;;;9.27;;
35276;SDS011;21401;50.878;8.050;2023-02-01T18:14:56;28.83;;;9.35;;
35276;SDS011;21401;50.878;8.050;2023-02-01T18:17:28;29.80;;;9.32;;
35276;SDS011;21401;50.878;8.050;2023-02-01T18:19:58;24.85;;;7.97;;
35276;SDS011;21401;50.878;8.050;2023-02-01T18:22:44;22.00;;;8.93;;
35276;SDS011;21401;50.878;8.050;2023-02-01T18:28:14;29.83;;;11.88;;
35276;SDS011;21401;50.878;8.050;2023-02-01T18:30:43;33.05;;;10.98;;
35276;SDS011;21401;50.878;8.050;2023-02-01T18:33:17;28.42;;;12.02;;
35276;SDS011;21401;50.878;8.050;2023-02-01T18:35:48;18.40;;;9.35;;
35276;SDS011;21401;50.878;8.050;2023-02-01T18:38:18;27.42;;;10.32;;
35276;SDS011;21401;50.878;8.050;2023-02-01T18:40:50;27.73;;;10.63;;
35276;SDS011;21401;50.878;8.050;2023-02-01T18:43:27;28.50;;;10.10;;
35276;SDS011;21401;50.878;8.050;2023-02-01T18:45:53;23.88;;;11.63;;
35276;SDS011;21401;50.878;8.050;2023-02-01T18:48:19;23.38;;;9.65;;
35276;SDS011;21401;50.878;8.050;2023-02-01T18:50:46;33.92;;;11.18;;
35276;SDS011;21401;50.878;8.050;2023-02-01T18:53:13;19.65;;;8.45;;
35276;SDS011;21401;50.878;8.050;2023-02-01T18:55:53;27.55;;;9.68;;
35276;SDS011;21401;50.878;8.050;2023-02-01T18:58:20;28.67;;;9.65;;
35276;SDS011;21401;50.878;8.050;2023-02-01T19:00:50;31.02;;;11.43;;
35276;SDS011;21401;50.878;8.050;2023-02-01T19:03:31;35.03;;;12.38;;
35276;SDS011;21401;50.878;8.050;2023-02-01T19:05:57;24.70;;;11.73;;
35276;SDS011;21401;50.878;8.050;2023-02-01T19:08:25;36.15;;;13.00;;
35276;SDS011;21401;50.878;8.050;2023-02-01T19:11:04;25.33;;;10.43;;
35276;SDS011;21401;50.878;8.050;2023-02-01T19:13:54;25.77;;;10.10;;
35276;SDS011;21401;50.878;8.050;2023-02-01T19:16:22;24.67;;;11.02;;
35276;SDS011;21401;50.878;8.050;2023-02-01T19:18:51;31.13;;;10.77;;
35276;SDS011;21401;50.878;8.050;2023-02-01T19:21:26;26.45;;;10.27;;
35276;SDS011;21401;50.878;8.050;2023-02-01T19:24:01;27.98;;;11.32;;
35276;SDS011;21401;50.878;8.050;2023-02-01T19:26:30;22.88;;;11.70;;
35276;SDS011;21401;50.878;8.050;2023-02-01T19:28:56;22.20;;;9.57;;
35276;SDS011;21401;50.878;8.050;2023-02-01T19:31:22;27.33;;;10.75;;
35276;SDS011;21401;50.878;8.050;2023-02-01T19:34:03;22.88;;;11.05;;
35276;SDS011;21401;50.878;8.050;2023-02-01T19:36:28;26.02;;;12.18;;
35276;SDS011;21401;50.878;8.050;2023-02-01T19:38:54;28.13;;;9.98;;
35276;SDS011;21401;50.878;8.050;2023-02-01T19:41:20;31.92;;;10.93;;
35276;SDS011;21401;50.878;8.050;2023-02-01T19:44:02;22.35;;;9.43;;
35276;SDS011;21401;50.878;8.050;2023-02-01T19:46:46;25.48;;;9.23;;
35276;SDS011;21401;50.878;8.050;2023-02-01T19:49:12;25.83;;;8.77;;
35276;SDS011;21401;50.878;8.050;2023-02-01T19:51:43;21.48;;;10.15;;
35276;SDS011;21401;50.878;8.050;2023-02-01T19:54:13;25.73;;;9.10;;
35276;SDS011;21401;50.878;8.050;2023-02-01T19:56:44;26.70;;;11.05;;
35276;SDS011;21401;50.878;8.050;2023-02-01T19:59:13;25.83;;;8.88;;
35276;SDS011;21401;50.878;8.050;2023-02-01T20:01:39;22.33;;;8.23;;
35276;SDS011;21401;50.878;8.050;2023-02-01T20:04:14;28.85;;;7.47;;
35276;SDS011;21401;50.878;8.050;2023-02-01T20:06:44;25.40;;;7.37;;
35276;SDS011;21401;50.878;8.050;2023-02-01T20:09:17;21.17;;;7.25;;
35276;SDS011;21401;50.878;8.050;2023-02-01T20:11:47;27.92;;;7.13;;
35276;SDS011;21401;50.878;8.050;2023-02-01T20:14:25;17.08;;;5.80;;
35276;SDS011;21401;50.878;8.050;2023-02-01T20:16:52;24.77;;;7.38;;
35276;SDS011;21401;50.878;8.050;2023-02-01T20:19:18;21.20;;;6.20;;
35276;SDS011;21401;50.878;8.050;2023-02-01T20:21:44;22.75;;;6.60;;
35276;SDS011;21401;50.878;8.050;2023-02-01T20:24:16;19.10;;;6.60;;
35276;SDS011;21401;50.878;8.050;2023-02-01T20:26:44;21.70;;;7.47;;
35276;SDS011;21401;50.878;8.050;2023-02-01T20:29:10;20.65;;;5.93;;
35276;SDS011;21401;50.878;8.050;2023-02-01T20:31:41;34.55;;;6.97;;
35276;SDS011;21401;50.878;8.050;2023-02-01T20:34:09;25.27;;;7.13;;
35276;SDS011;21401;50.878;8.050;2023-02-01T20:36:37;16.02;;;6.25;;
35276;SDS011;21401;50.878;8.050;2023-02-01T20:39:10;21.67;;;6.75;;
35276;SDS011;21401;50.878;8.050;2023-02-01T20:41:42;26.95;;;7.70;;
35276;SDS011;21401;50.878;8.050;2023-02-01T20:44:13;18.05;;;6.43;;
35276;SDS011;21401;50.878;8.050;2023-02-01T20:46:39;24.27;;;7.47;;
35276;SDS011;21401;50.878;8.050;2023-02-01T20:49:10;20.90;;;7.50;;
35276;SDS011;21401;50.878;8.050;2023-02-01T20:51:43;29.42;;;7.72;;
35276;SDS011;21401;50.878;8.050;2023-02-01T20:54:14;34.03;;;9.10;;
35276;SDS011;21401;50.878;8.050;2023-02-01T20:56:40;30.25;;;11.15;;
35276;SDS011;21401;50.878;8.050;2023-02-01T20:59:15;22.65;;;9.70;;
35276;SDS011;21401;50.878;8.050;2023-02-01T21:01:46;27.90;;;10.50;;
35276;SDS011;21401;50.878;8.050;2023-02-01T21:04:18;25.95;;;11.15;;
35276;SDS011;21401;50.878;8.050;2023-02-01T21:06:47;33.25;;;10.45;;
35276;SDS011;21401;50.878;8.050;2023-02-01T21:09:18;30.67;;;11.95;;
35276;SDS011;21401;50.878;8.050;2023-02-01T21:11:44;35.55;;;12.38;;
35276;SDS011;21401;50.878;8.050;2023-02-01T21:14:12;27.52;;;11.45;;
35276;SDS011;21401;50.878;8.050;2023-02-01T21:16:38;32.92;;;12.45;;
35276;SDS011;21401;50.878;8.050;2023-02-01T21:19:09;32.60;;;12.98;;
35276;SDS011;21401;50.878;8.050;2023-02-01T21:21:44;24.08;;;9.93;;
35276;SDS011;21401;50.878;8.050;2023-02-01T21:24:12;32.70;;;12.15;;
35276;SDS011;21401;50.878;8.050;2023-02-01T21:26:38;31.50;;;10.07;;
35276;SDS011;21401;50.878;8.050;2023-02-01T21:29:13;28.42;;;10.55;;
35276;SDS011;21401;50.878;8.050;2023-02-01T21:32:04;21.75;;;9.32;;
35276;SDS011;21401;50.878;8.050;2023-02-01T21:34:31;25.75;;;9.48;;
35276;SDS011;21401;50.878;8.050;2023-02-01T21:36:57;30.27;;;11.00;;
35276;SDS011;21401;50.878;8.050;2023-02-01T21:39:23;36.85;;;12.55;;
35276;SDS011;21401;50.878;8.050;2023-02-01T21:41:54;22.58;;;8.32;;
35276;SDS011;21401;50.878;8.050;2023-02-01T21:47:29;9.15;;;3.70;;
35276;SDS011;21401;50.878;8.050;2023-02-01T21:50:02;6.50;;;2.80;;
35276;SDS011;21401;50.878;8.050;2023-02-01T21:52:43;6.32;;;2.80;;
35276;SDS011;21401;50.878;8.050;2023-02-01T21:55:19;8.23;;;2.38;;
35276;SDS011;21401;50.878;8.050;2023-02-01T21:57:54;7.47;;;3.05;;
35276;SDS011;21401;50.878;8.050;2023-02-01T22:00:24;7.15;;;2.70;;
35276;SDS011;21401;50.878;8.050;2023-02-01T22:02:53;9.60;;;2.60;;
35276;SDS011;21401;50.878;8.050;2023-02-01T22:05:26;7.32;;;2.15;;
35276;SDS011;21401;50.878;8.050;2023-02-01T22:07:55;7.25;;;2.50;;
35276;SDS011;21401;50.878;8.050;2023-02-01T22:10:34;5.00;;;2.15;;
35276;SDS011;21401;50.878;8.050;2023-02-01T22:13:03;5.80;;;1.80;;
35276;SDS011;21401;50.878;8.050;2023-02-01T22:15:29;2.85;;;1.90;;
35276;SDS011;21401;50.878;8.050;2023-02-01T22:17:54;6.00;;;2.00;;
35276;SDS011;21401;50.878;8.050;2023-02-01T22:20:29;5.57;;;2.28;;
35276;SDS011;21401;50.878;8.050;2023-02-01T22:23:06;7.57;;;2.70;;
35276;SDS011;21401;50.878;8.050;2023-02-01T22:25:37;6.72;;;2.42;;
35276;SDS011;21401;50.878;8.050;2023-02-01T22:28:04;3.45;;;2.13;;
35276;SDS011;21401;50.878;8.050;2023-02-01T22:30:35;4.95;;;2.35;;
35276;SDS011;21401;50.878;8.050;2023-02-01T22:33:06;3.63;;;2.20;;
35276;SDS011;21401;50.878;8.050;2023-02-01T22:35:32;3.63;;;2.45;;
35276;SDS011;21401;50.878;8.050;2023-02-01T22:37:58;6.75;;;3.38;;
35276;SDS011;21401;50.878;8.050;2023-02-01T22:40:23;11.07;;;5.40;;
35276;SDS011;21401;50.878;8.050;2023-02-01T22:42:49;8.40;;;4.95;;
35276;SDS011;21401;50.878;8.050;2023-02-01T22:45:15;10.10;;;5.22;;
35276;SDS011;21401;50.878;8.050;2023-02-01T22:47:41;11.20;;;5.50;;
35276;SDS011;21401;50.878;8.050;2023-02-01T22:50:09;6.25;;;4.40;;
35276;SDS011;21401;50.878;8.050;2023-02-01T22:52:35;6.13;;;3.97;;
35276;SDS011;21401;50.878;8.050;2023-02-01T22:55:01;9.48;;;5.15;;
35276;SDS011;21401;50.878;8.050;2023-02-01T22:57:27;10.93;;;5.32;;
35276;SDS011;21401;50.878;8.050;2023-02-01T22:59:52;10.65;;;4.80;;
35276;SDS011;21401;50.878;8.050;2023-02-01T23:02:20;10.60;;;5.22;;
35276;SDS011;21401;50.878;8.050;2023-02-01T23:04:46;9.95;;;5.07;;
35276;SDS011;21401;50.878;8.050;2023-02-01T23:07:12;9.18;;;4.88;;
35276;SDS011;21401;50.878;8.050;2023-02-01T23:09:41;7.82;;;4.50;;
35276;SDS011;21401;50.878;8.050;2023-02-01T23:12:10;4.72;;;3.10;;
35276;SDS011;21401;50.878;8.050;2023-02-01T23:14:36;4.57;;;3.20;;
35276;SDS011;21401;50.878;8.050;2023-02-01T23:17:21;9.75;;;4.30;;
35276;SDS011;21401;50.878;8.050;2023-02-01T23:19:48;6.25;;;2.97;;
35276;SDS011;21401;50.878;8.050;2023-02-01T23:22:21;3.47;;;1.70;;
35276;SDS011;21401;50.878;8.050;2023-02-01T23:24:47;2.83;;;1.75;;
35276;SDS011;21401;50.878;8.050;2023-02-01T23:27:15;4.78;;;2.05;;
35276;SDS011;21401;50.878;8.050;2023-02-01T23:29:41;3.13;;;1.90;;
35276;SDS011;21401;50.878;8.050;2023-02-01T23:32:07;2.58;;;1.30;;
35276;SDS011;21401;50.878;8.050;2023-02-01T23:34:35;4.63;;;1.30;;
35276;SDS011;21401;50.878;8.050;2023-02-01T23:37:02;2.15;;;1.10;;
35276;SDS011;21401;50.878;8.050;2023-02-01T23:39:27;2.60;;;1.30;;
35276;SDS011;21401;50.878;8.050;2023-02-01T23:41:56;3.08;;;1.85;;
35276;SDS011;21401;50.878;8.050;2023-02-01T23:44:22;3.05;;;1.65;;
35276;SDS011;21401;50.878;8.050;2023-02-01T23:46:50;4.75;;;1.75;;
35276;SDS011;21401;50.878;8.050;2023-02-01T23:49:16;2.40;;;1.63;;
35276;SDS011;21401;50.878;8.050;2023-02-01T23:51:45;5.00;;;2.20;;
35276;SDS011;21401;50.878;8.050;2023-02-01T23:54:17;5.78;;;2.42;;
35276;SDS011;21401;50.878;8.050;2023-02-01T23:56:47;6.65;;;3.38;;
35276;SDS011;21401;50.878;8.050;2023-02-01T23:59:15;4.82;;;3.05;;
